Ana Sayfa
METAR-TAF:

METAR-TAF

Havaalanları :

Yeni Delhi, Hindistan

Enlem: 28-34N, Boylam: 077-07E, yükseklik: 220 m

Güncel hava durumu gözlemi

Rapor saat 23:00 UTC de 21 dakika önce yapıldı.
Rüzgar batı/güneybatıdan 3 kt
Sıcaklık 16°C
Nem 88%
Basınç 1016 hPa
Görüş mesafesi: 0400 m
sis

METAR: VIDP 202300Z 25003KT 0400 R28/1800 R29/1800 FG NSC 16/14 Q1016 BECMG 0350 FG

Saat: 04:51 (23:21 UTC)

Tahmin

Rapor saat 20:00 UTC de 3 saat ve 21 dakika önce yapıldı.
Ayın 20'si saat 21 UTC'den ayın 21'si saat 06 UTC'ye kadar geçerli Tahmin
Rüzgar kuzeydan kt
Görüş mesafesi: 0800 m
Pus
Dönüşüyor
ayın 21'si saat 00 UTC'den ayın 21'si saat 02 UTC'ye kadar
Görüş mesafesi: 0800 m
10000 ft yükseklikte az bulutlu
Sığ sis
Dönüşüyor
ayın 21'si saat 04 UTC'den ayın 21'si saat 06 UTC'ye kadar
Rüzgar batı/kuzeybatıdan 6 kt
Görüş mesafesi: 2500 m
Toz Pusu

TAF: VIDP 202000Z 2021/2106 00000KT 0800 BR NSC BECMG 2100/2102 0800 MIFG FEW100 BECMG 2104/2106 29006KT 2500 HZ

4.000'den fazla havaalanı için hava durumu gözlemleri ve tahminleri (METAR ve TAF raporları).

Kullanılabilir istasyonlar harita üzerinde sarı ve kırmızı noktalarla gösterilir.

İstasyonun adını görmek için fareyi noktanın üzerinde gezdirin.

Sonrasında hava gözlem ve tahminlerini görmek için tıklayın.

Haritayı değiştirmek için: yaklaştırmak için siyah artı işaretli yeşil düğmeye ve uzaklaştırmak için de eksi işaretli düğmeye hızla tıklayın; bitişik haritalar için yeşil okları kullanın.


METAR-TAF: